Weather at Aswan International Airport

Public forecast

Using degrees Celsius for public forecast. Weather courtesy of forecast.io.

Current aviation weather report (METAR) for Aswan International Airport

Report is more than 6 hours old.

Retrieved 2020/11/04 14:00 UTC (21 days ago):

HESN 041400Z NI

Aviation forecast (TAF) for Aswan International Airport

Retrieved 2020/11/25 06:03 UTC (4 hours ago):

TAF HESN 250500Z 2506/2612 35008G18KT CAVOK